sensor_id;sensor_type;location;lat;lon;timestamp;temperature;humidity
25668;DHT22;18003;-33.830;151.202;2023-08-06T00:02:18;15.40;99.90
25668;DHT22;18003;-33.830;151.202;2023-08-06T00:04:48;15.40;99.90
25668;DHT22;18003;-33.830;151.202;2023-08-06T00:07:17;15.40;99.90
25668;DHT22;18003;-33.830;151.202;2023-08-06T00:09:47;15.40;99.90
25668;DHT22;18003;-33.830;151.202;2023-08-06T00:12:17;15.40;99.90
25668;DHT22;18003;-33.830;151.202;2023-08-06T00:14:53;15.40;99.90
25668;DHT22;18003;-33.830;151.202;2023-08-06T00:17:23;15.40;99.90
25668;DHT22;18003;-33.830;151.202;2023-08-06T00:19:54;15.40;99.90
25668;DHT22;18003;-33.830;151.202;2023-08-06T00:22:24;15.40;99.90
25668;DHT22;18003;-33.830;151.202;2023-08-06T00:24:54;15.40;99.90
25668;DHT22;18003;-33.830;151.202;2023-08-06T00:27:25;15.30;99.90
25668;DHT22;18003;-33.830;151.202;2023-08-06T00:29:55;15.40;99.90
25668;DHT22;18003;-33.830;151.202;2023-08-06T00:32:25;15.40;99.90
25668;DHT22;18003;-33.830;151.202;2023-08-06T00:34:55;15.40;99.90
25668;DHT22;18003;-33.830;151.202;2023-08-06T00:37:25;15.40;99.90
25668;DHT22;18003;-33.830;151.202;2023-08-06T00:39:55;15.40;99.90
25668;DHT22;18003;-33.830;151.202;2023-08-06T00:42:25;15.40;99.90
25668;DHT22;18003;-33.830;151.202;2023-08-06T00:44:55;15.40;99.90
25668;DHT22;18003;-33.830;151.202;2023-08-06T00:47:25;15.40;99.90
25668;DHT22;18003;-33.830;151.202;2023-08-06T00:49:55;15.40;99.90
25668;DHT22;18003;-33.830;151.202;2023-08-06T00:52:25;15.40;99.90
25668;DHT22;18003;-33.830;151.202;2023-08-06T00:54:55;15.40;99.90
25668;DHT22;18003;-33.830;151.202;2023-08-06T00:57:25;15.40;99.90
25668;DHT22;18003;-33.830;151.202;2023-08-06T00:59:56;15.40;99.90
25668;DHT22;18003;-33.830;151.202;2023-08-06T01:02:26;15.40;99.90
25668;DHT22;18003;-33.830;151.202;2023-08-06T01:04:55;15.40;99.90
25668;DHT22;18003;-33.830;151.202;2023-08-06T01:07:48;15.40;99.90
25668;DHT22;18003;-33.830;151.202;2023-08-06T01:10:27;15.50;99.90
25668;DHT22;18003;-33.830;151.202;2023-08-06T01:13:18;15.50;99.90
25668;DHT22;18003;-33.830;151.202;2023-08-06T01:15:49;15.50;99.90
25668;DHT22;18003;-33.830;151.202;2023-08-06T01:18:19;15.50;99.90
25668;DHT22;18003;-33.830;151.202;2023-08-06T01:20:49;15.50;99.90
25668;DHT22;18003;-33.830;151.202;2023-08-06T01:23:19;15.50;99.90
25668;DHT22;18003;-33.830;151.202;2023-08-06T01:28:59;15.50;99.90
25668;DHT22;18003;-33.830;151.202;2023-08-06T01:31:35;15.50;99.90
25668;DHT22;18003;-33.830;151.202;2023-08-06T01:34:00;15.50;99.90
25668;DHT22;18003;-33.830;151.202;2023-08-06T01:36:31;15.50;99.90
25668;DHT22;18003;-33.830;151.202;2023-08-06T01:39:02;15.50;99.90
25668;DHT22;18003;-33.830;151.202;2023-08-06T01:41:32;15.50;99.90
25668;DHT22;18003;-33.830;151.202;2023-08-06T01:44:02;15.50;99.90
25668;DHT22;18003;-33.830;151.202;2023-08-06T01:46:32;15.50;99.90
25668;DHT22;18003;-33.830;151.202;2023-08-06T01:49:02;15.50;99.90
25668;DHT22;18003;-33.830;151.202;2023-08-06T01:51:32;15.50;99.90
25668;DHT22;18003;-33.830;151.202;2023-08-06T01:54:02;15.50;99.90
25668;DHT22;18003;-33.830;151.202;2023-08-06T01:56:32;15.50;99.90
25668;DHT22;18003;-33.830;151.202;2023-08-06T01:59:02;15.50;99.90
25668;DHT22;18003;-33.830;151.202;2023-08-06T02:01:32;15.50;99.90
25668;DHT22;18003;-33.830;151.202;2023-08-06T02:04:02;15.50;99.90
25668;DHT22;18003;-33.830;151.202;2023-08-06T02:06:32;15.50;99.90
25668;DHT22;18003;-33.830;151.202;2023-08-06T02:09:02;15.50;99.90
25668;DHT22;18003;-33.830;151.202;2023-08-06T02:11:32;15.50;99.90
25668;DHT22;18003;-33.830;151.202;2023-08-06T02:14:02;15.50;99.90
25668;DHT22;18003;-33.830;151.202;2023-08-06T02:16:32;15.50;99.90
25668;DHT22;18003;-33.830;151.202;2023-08-06T02:19:02;15.50;99.90
25668;DHT22;18003;-33.830;151.202;2023-08-06T02:21:32;15.50;99.90
25668;DHT22;18003;-33.830;151.202;2023-08-06T02:24:02;15.50;99.90
25668;DHT22;18003;-33.830;151.202;2023-08-06T02:26:32;15.50;99.90
25668;DHT22;18003;-33.830;151.202;2023-08-06T02:29:02;15.50;99.90
25668;DHT22;18003;-33.830;151.202;2023-08-06T02:31:32;15.60;99.90
25668;DHT22;18003;-33.830;151.202;2023-08-06T02:34:02;15.60;99.90
25668;DHT22;18003;-33.830;151.202;2023-08-06T02:36:32;15.60;99.90
25668;DHT22;18003;-33.830;151.202;2023-08-06T02:39:02;15.60;99.90
25668;DHT22;18003;-33.830;151.202;2023-08-06T02:41:32;15.60;99.90
25668;DHT22;18003;-33.830;151.202;2023-08-06T02:44:02;15.60;99.90
25668;DHT22;18003;-33.830;151.202;2023-08-06T02:46:32;15.60;99.90
25668;DHT22;18003;-33.830;151.202;2023-08-06T02:49:02;15.60;99.90
25668;DHT22;18003;-33.830;151.202;2023-08-06T02:51:33;15.60;99.90
25668;DHT22;18003;-33.830;151.202;2023-08-06T02:54:03;15.60;99.90
25668;DHT22;18003;-33.830;151.202;2023-08-06T02:56:33;15.60;99.90
25668;DHT22;18003;-33.830;151.202;2023-08-06T02:59:04;15.60;99.90
25668;DHT22;18003;-33.830;151.202;2023-08-06T03:01:34;15.60;99.90
25668;DHT22;18003;-33.830;151.202;2023-08-06T03:04:05;15.60;99.90
25668;DHT22;18003;-33.830;151.202;2023-08-06T03:06:35;15.60;99.90
25668;DHT22;18003;-33.830;151.202;2023-08-06T03:09:05;15.60;99.90
25668;DHT22;18003;-33.830;151.202;2023-08-06T03:11:35;15.60;99.90
25668;DHT22;18003;-33.830;151.202;2023-08-06T03:14:05;15.60;99.90
25668;DHT22;18003;-33.830;151.202;2023-08-06T03:16:35;15.60;99.90
25668;DHT22;18003;-33.830;151.202;2023-08-06T03:19:05;15.60;99.90
25668;DHT22;18003;-33.830;151.202;2023-08-06T03:21:35;15.60;99.90
25668;DHT22;18003;-33.830;151.202;2023-08-06T03:24:05;15.60;99.90
25668;DHT22;18003;-33.830;151.202;2023-08-06T03:26:35;15.60;99.90
25668;DHT22;18003;-33.830;151.202;2023-08-06T03:29:05;15.60;99.90
25668;DHT22;18003;-33.830;151.202;2023-08-06T03:31:35;15.60;99.90
25668;DHT22;18003;-33.830;151.202;2023-08-06T03:34:05;15.50;99.90
25668;DHT22;18003;-33.830;151.202;2023-08-06T03:36:35;15.60;99.90
25668;DHT22;18003;-33.830;151.202;2023-08-06T03:39:05;15.60;99.90
25668;DHT22;18003;-33.830;151.202;2023-08-06T03:41:35;15.60;99.90
25668;DHT22;18003;-33.830;151.202;2023-08-06T03:44:05;15.60;99.90
25668;DHT22;18003;-33.830;151.202;2023-08-06T03:46:35;15.50;99.90
25668;DHT22;18003;-33.830;151.202;2023-08-06T03:49:05;15.60;99.90
25668;DHT22;18003;-33.830;151.202;2023-08-06T03:51:35;15.60;99.90
25668;DHT22;18003;-33.830;151.202;2023-08-06T03:54:05;15.60;99.90
25668;DHT22;18003;-33.830;151.202;2023-08-06T03:56:35;15.60;99.90
25668;DHT22;18003;-33.830;151.202;2023-08-06T03:59:05;15.70;99.90
25668;DHT22;18003;-33.830;151.202;2023-08-06T04:01:36;15.70;99.90
25668;DHT22;18003;-33.830;151.202;2023-08-06T04:04:06;15.70;99.90
25668;DHT22;18003;-33.830;151.202;2023-08-06T04:06:36;15.70;99.90
25668;DHT22;18003;-33.830;151.202;2023-08-06T04:09:06;15.70;99.90
25668;DHT22;18003;-33.830;151.202;2023-08-06T04:11:36;15.70;99.90
25668;DHT22;18003;-33.830;151.202;2023-08-06T04:14:05;15.70;99.90
25668;DHT22;18003;-33.830;151.202;2023-08-06T04:16:36;15.70;99.90
25668;DHT22;18003;-33.830;151.202;2023-08-06T04:19:05;15.70;99.90
25668;DHT22;18003;-33.830;151.202;2023-08-06T04:21:35;15.70;99.90
25668;DHT22;18003;-33.830;151.202;2023-08-06T04:24:05;15.70;99.90
25668;DHT22;18003;-33.830;151.202;2023-08-06T04:26:35;15.70;99.90
25668;DHT22;18003;-33.830;151.202;2023-08-06T04:29:06;15.70;99.90
25668;DHT22;18003;-33.830;151.202;2023-08-06T04:31:36;15.70;99.90
25668;DHT22;18003;-33.830;151.202;2023-08-06T04:34:05;15.70;99.90
25668;DHT22;18003;-33.830;151.202;2023-08-06T04:36:37;15.70;99.90
25668;DHT22;18003;-33.830;151.202;2023-08-06T04:39:07;15.70;99.90
25668;DHT22;18003;-33.830;151.202;2023-08-06T04:41:37;15.70;99.90
25668;DHT22;18003;-33.830;151.202;2023-08-06T04:44:07;15.70;99.90
25668;DHT22;18003;-33.830;151.202;2023-08-06T04:46:37;15.70;99.90
25668;DHT22;18003;-33.830;151.202;2023-08-06T04:49:07;15.70;99.90
25668;DHT22;18003;-33.830;151.202;2023-08-06T04:51:37;15.70;99.90
25668;DHT22;18003;-33.830;151.202;2023-08-06T04:54:07;15.70;99.90
25668;DHT22;18003;-33.830;151.202;2023-08-06T04:56:37;15.70;99.90
25668;DHT22;18003;-33.830;151.202;2023-08-06T04:59:07;15.70;99.90
25668;DHT22;18003;-33.830;151.202;2023-08-06T05:01:37;15.70;99.90
25668;DHT22;18003;-33.830;151.202;2023-08-06T05:04:08;15.70;99.90
25668;DHT22;18003;-33.830;151.202;2023-08-06T05:06:38;15.70;99.90
25668;DHT22;18003;-33.830;151.202;2023-08-06T05:09:09;15.70;99.90
25668;DHT22;18003;-33.830;151.202;2023-08-06T05:11:39;15.70;99.90
25668;DHT22;18003;-33.830;151.202;2023-08-06T05:14:09;15.70;99.90
25668;DHT22;18003;-33.830;151.202;2023-08-06T05:16:39;15.70;99.90
25668;DHT22;18003;-33.830;151.202;2023-08-06T05:19:09;15.70;99.90
25668;DHT22;18003;-33.830;151.202;2023-08-06T05:21:39;15.70;99.90
25668;DHT22;18003;-33.830;151.202;2023-08-06T05:24:09;15.70;99.90
25668;DHT22;18003;-33.830;151.202;2023-08-06T05:26:40;15.70;99.90
25668;DHT22;18003;-33.830;151.202;2023-08-06T05:29:10;15.70;99.90
25668;DHT22;18003;-33.830;151.202;2023-08-06T05:31:40;15.70;99.90
25668;DHT22;18003;-33.830;151.202;2023-08-06T05:34:10;15.70;99.90
25668;DHT22;18003;-33.830;151.202;2023-08-06T05:36:40;15.70;99.90
25668;DHT22;18003;-33.830;151.202;2023-08-06T05:39:10;15.70;99.90
25668;DHT22;18003;-33.830;151.202;2023-08-06T05:41:40;15.70;99.90
25668;DHT22;18003;-33.830;151.202;2023-08-06T05:44:10;15.70;99.90
25668;DHT22;18003;-33.830;151.202;2023-08-06T05:46:40;15.60;99.90
25668;DHT22;18003;-33.830;151.202;2023-08-06T05:49:10;15.70;99.90
25668;DHT22;18003;-33.830;151.202;2023-08-06T05:51:41;15.60;99.90
25668;DHT22;18003;-33.830;151.202;2023-08-06T05:54:11;15.70;99.90
25668;DHT22;18003;-33.830;151.202;2023-08-06T05:56:41;15.70;99.90
25668;DHT22;18003;-33.830;151.202;2023-08-06T05:59:11;15.70;99.90
25668;DHT22;18003;-33.830;151.202;2023-08-06T06:01:41;15.80;99.90
25668;DHT22;18003;-33.830;151.202;2023-08-06T06:04:11;15.80;99.90
25668;DHT22;18003;-33.830;151.202;2023-08-06T06:06:42;15.90;99.90
25668;DHT22;18003;-33.830;151.202;2023-08-06T06:09:12;15.90;99.90
25668;DHT22;18003;-33.830;151.202;2023-08-06T06:11:43;15.90;99.90
25668;DHT22;18003;-33.830;151.202;2023-08-06T06:14:13;15.90;99.90
25668;DHT22;18003;-33.830;151.202;2023-08-06T06:16:43;15.90;99.90
25668;DHT22;18003;-33.830;151.202;2023-08-06T06:19:13;15.90;99.90
25668;DHT22;18003;-33.830;151.202;2023-08-06T06:21:43;15.90;99.90
25668;DHT22;18003;-33.830;151.202;2023-08-06T06:24:13;16.00;99.90
25668;DHT22;18003;-33.830;151.202;2023-08-06T06:26:43;16.00;99.90
25668;DHT22;18003;-33.830;151.202;2023-08-06T06:29:13;16.00;99.90
25668;DHT22;18003;-33.830;151.202;2023-08-06T06:31:43;16.00;99.90
25668;DHT22;18003;-33.830;151.202;2023-08-06T06:34:13;16.00;99.90
25668;DHT22;18003;-33.830;151.202;2023-08-06T06:36:43;16.00;99.90
25668;DHT22;18003;-33.830;151.202;2023-08-06T06:39:13;16.00;99.90
25668;DHT22;18003;-33.830;151.202;2023-08-06T06:41:43;16.00;99.90
25668;DHT22;18003;-33.830;151.202;2023-08-06T06:44:14;16.00;99.90
25668;DHT22;18003;-33.830;151.202;2023-08-06T06:46:44;16.00;99.90
25668;DHT22;18003;-33.830;151.202;2023-08-06T06:49:14;15.90;99.90
25668;DHT22;18003;-33.830;151.202;2023-08-06T06:51:44;15.90;99.90
25668;DHT22;18003;-33.830;151.202;2023-08-06T06:54:14;15.90;99.90
25668;DHT22;18003;-33.830;151.202;2023-08-06T06:56:44;15.90;99.90
25668;DHT22;18003;-33.830;151.202;2023-08-06T06:59:14;15.90;99.90
25668;DHT22;18003;-33.830;151.202;2023-08-06T07:01:44;16.00;99.90
25668;DHT22;18003;-33.830;151.202;2023-08-06T07:04:14;16.00;99.90
25668;DHT22;18003;-33.830;151.202;2023-08-06T07:06:44;16.00;99.90
25668;DHT22;18003;-33.830;151.202;2023-08-06T07:09:15;16.00;99.90
25668;DHT22;18003;-33.830;151.202;2023-08-06T07:11:45;16.00;99.90
25668;DHT22;18003;-33.830;151.202;2023-08-06T07:14:15;16.00;99.90
25668;DHT22;18003;-33.830;151.202;2023-08-06T07:16:45;15.90;99.90
25668;DHT22;18003;-33.830;151.202;2023-08-06T07:19:15;15.90;99.90
25668;DHT22;18003;-33.830;151.202;2023-08-06T07:21:45;15.90;99.90
25668;DHT22;18003;-33.830;151.202;2023-08-06T07:24:15;15.90;99.90
25668;DHT22;18003;-33.830;151.202;2023-08-06T07:26:45;15.90;99.90
25668;DHT22;18003;-33.830;151.202;2023-08-06T07:29:15;15.90;99.90
25668;DHT22;18003;-33.830;151.202;2023-08-06T07:31:46;15.90;99.90
25668;DHT22;18003;-33.830;151.202;2023-08-06T07:34:16;15.90;99.90
25668;DHT22;18003;-33.830;151.202;2023-08-06T07:36:46;15.90;99.90
25668;DHT22;18003;-33.830;151.202;2023-08-06T07:39:16;15.90;99.90
25668;DHT22;18003;-33.830;151.202;2023-08-06T07:41:46;15.90;99.90
25668;DHT22;18003;-33.830;151.202;2023-08-06T07:44:16;15.90;99.90
25668;DHT22;18003;-33.830;151.202;2023-08-06T07:46:46;15.80;99.90
25668;DHT22;18003;-33.830;151.202;2023-08-06T07:49:16;15.80;99.90
25668;DHT22;18003;-33.830;151.202;2023-08-06T07:51:46;15.80;99.90
25668;DHT22;18003;-33.830;151.202;2023-08-06T07:54:16;15.70;99.90
25668;DHT22;18003;-33.830;151.202;2023-08-06T07:56:46;15.70;99.90
25668;DHT22;18003;-33.830;151.202;2023-08-06T07:59:16;15.70;99.90
25668;DHT22;18003;-33.830;151.202;2023-08-06T08:01:46;15.70;99.90
25668;DHT22;18003;-33.830;151.202;2023-08-06T08:04:16;15.80;99.90
25668;DHT22;18003;-33.830;151.202;2023-08-06T08:06:46;16.10;99.90
25668;DHT22;18003;-33.830;151.202;2023-08-06T08:09:16;16.40;99.90
25668;DHT22;18003;-33.830;151.202;2023-08-06T08:11:47;16.50;99.90
25668;DHT22;18003;-33.830;151.202;2023-08-06T08:14:17;16.30;99.90
25668;DHT22;18003;-33.830;151.202;2023-08-06T08:16:47;16.10;99.90
25668;DHT22;18003;-33.830;151.202;2023-08-06T08:19:17;15.90;99.90
25668;DHT22;18003;-33.830;151.202;2023-08-06T08:21:47;15.80;99.90
25668;DHT22;18003;-33.830;151.202;2023-08-06T08:24:17;15.70;99.90
25668;DHT22;18003;-33.830;151.202;2023-08-06T08:26:48;15.60;99.90
25668;DHT22;18003;-33.830;151.202;2023-08-06T08:29:17;15.40;99.90
25668;DHT22;18003;-33.830;151.202;2023-08-06T08:31:48;15.30;99.90
25668;DHT22;18003;-33.830;151.202;2023-08-06T08:34:21;15.20;99.90
25668;DHT22;18003;-33.830;151.202;2023-08-06T08:36:51;15.10;99.90
25668;DHT22;18003;-33.830;151.202;2023-08-06T08:39:21;15.10;99.90
25668;DHT22;18003;-33.830;151.202;2023-08-06T08:41:51;15.00;99.90
25668;DHT22;18003;-33.830;151.202;2023-08-06T08:44:21;14.90;99.90
25668;DHT22;18003;-33.830;151.202;2023-08-06T08:46:53;14.80;99.90
25668;DHT22;18003;-33.830;151.202;2023-08-06T08:49:23;14.80;99.90
25668;DHT22;18003;-33.830;151.202;2023-08-06T08:51:54;14.80;99.90
25668;DHT22;18003;-33.830;151.202;2023-08-06T08:54:24;14.80;99.90
25668;DHT22;18003;-33.830;151.202;2023-08-06T08:56:54;14.80;99.90
25668;DHT22;18003;-33.830;151.202;2023-08-06T08:59:24;14.90;99.90
25668;DHT22;18003;-33.830;151.202;2023-08-06T09:01:55;14.80;99.90
25668;DHT22;18003;-33.830;151.202;2023-08-06T09:04:27;14.80;99.90
25668;DHT22;18003;-33.830;151.202;2023-08-06T09:06:59;14.70;99.90
25668;DHT22;18003;-33.830;151.202;2023-08-06T09:09:33;14.70;99.90
25668;DHT22;18003;-33.830;151.202;2023-08-06T09:12:12;14.60;99.90
25668;DHT22;18003;-33.830;151.202;2023-08-06T09:14:37;14.60;99.90
25668;DHT22;18003;-33.830;151.202;2023-08-06T09:17:06;14.60;99.90
25668;DHT22;18003;-33.830;151.202;2023-08-06T09:19:39;14.60;99.90
25668;DHT22;18003;-33.830;151.202;2023-08-06T09:22:11;14.50;99.90
25668;DHT22;18003;-33.830;151.202;2023-08-06T09:24:42;14.50;99.90
25668;DHT22;18003;-33.830;151.202;2023-08-06T09:27:13;14.50;99.90
25668;DHT22;18003;-33.830;151.202;2023-08-06T09:29:46;14.50;99.90
25668;DHT22;18003;-33.830;151.202;2023-08-06T09:32:16;14.50;99.90
25668;DHT22;18003;-33.830;151.202;2023-08-06T09:34:47;14.50;99.90
25668;DHT22;18003;-33.830;151.202;2023-08-06T09:37:18;14.50;99.90
25668;DHT22;18003;-33.830;151.202;2023-08-06T09:39:47;14.50;99.90
25668;DHT22;18003;-33.830;151.202;2023-08-06T09:42:17;14.60;99.90
25668;DHT22;18003;-33.830;151.202;2023-08-06T09:44:48;14.60;99.90
25668;DHT22;18003;-33.830;151.202;2023-08-06T09:47:17;14.60;99.90
25668;DHT22;18003;-33.830;151.202;2023-08-06T09:49:48;14.60;99.90
25668;DHT22;18003;-33.830;151.202;2023-08-06T09:52:20;14.50;99.90
25668;DHT22;18003;-33.830;151.202;2023-08-06T09:54:51;14.50;99.90
25668;DHT22;18003;-33.830;151.202;2023-08-06T09:57:22;14.50;99.90
25668;DHT22;18003;-33.830;151.202;2023-08-06T09:59:53;14.40;99.90
25668;DHT22;18003;-33.830;151.202;2023-08-06T10:02:25;14.40;99.90
25668;DHT22;18003;-33.830;151.202;2023-08-06T10:04:58;14.40;99.90
25668;DHT22;18003;-33.830;151.202;2023-08-06T10:07:31;14.40;99.90
25668;DHT22;18003;-33.830;151.202;2023-08-06T10:10:01;14.40;99.90
25668;DHT22;18003;-33.830;151.202;2023-08-06T10:12:34;14.40;99.90
25668;DHT22;18003;-33.830;151.202;2023-08-06T10:15:06;14.40;99.90
25668;DHT22;18003;-33.830;151.202;2023-08-06T10:17:37;14.40;99.90
25668;DHT22;18003;-33.830;151.202;2023-08-06T10:20:08;14.40;99.90
25668;DHT22;18003;-33.830;151.202;2023-08-06T10:22:42;14.40;99.90
25668;DHT22;18003;-33.830;151.202;2023-08-06T10:25:11;14.50;99.90
25668;DHT22;18003;-33.830;151.202;2023-08-06T10:30:30;15.00;99.90
25668;DHT22;18003;-33.830;151.202;2023-08-06T10:33:03;15.10;99.90
25668;DHT22;18003;-33.830;151.202;2023-08-06T10:38:22;15.30;99.90
25668;DHT22;18003;-33.830;151.202;2023-08-06T10:43:32;15.40;99.90
25668;DHT22;18003;-33.830;151.202;2023-08-06T10:46:04;15.40;99.90
25668;DHT22;18003;-33.830;151.202;2023-08-06T10:48:41;15.40;99.90
25668;DHT22;18003;-33.830;151.202;2023-08-06T10:51:12;15.40;99.90
25668;DHT22;18003;-33.830;151.202;2023-08-06T10:53:46;15.40;99.90
25668;DHT22;18003;-33.830;151.202;2023-08-06T10:56:18;15.40;99.90
25668;DHT22;18003;-33.830;151.202;2023-08-06T10:58:49;15.40;99.90
25668;DHT22;18003;-33.830;151.202;2023-08-06T11:01:19;15.40;99.90
25668;DHT22;18003;-33.830;151.202;2023-08-06T11:03:50;15.50;99.90
25668;DHT22;18003;-33.830;151.202;2023-08-06T11:06:22;15.50;99.90
25668;DHT22;18003;-33.830;151.202;2023-08-06T11:08:53;15.50;99.90
25668;DHT22;18003;-33.830;151.202;2023-08-06T11:11:24;15.40;99.90
25668;DHT22;18003;-33.830;151.202;2023-08-06T11:13:54;15.50;99.90
25668;DHT22;18003;-33.830;151.202;2023-08-06T11:16:25;15.50;99.90
25668;DHT22;18003;-33.830;151.202;2023-08-06T11:18:55;15.50;99.90
25668;DHT22;18003;-33.830;151.202;2023-08-06T11:21:26;15.50;99.90
25668;DHT22;18003;-33.830;151.202;2023-08-06T11:23:56;15.50;99.90
25668;DHT22;18003;-33.830;151.202;2023-08-06T11:26:26;15.50;99.90
25668;DHT22;18003;-33.830;151.202;2023-08-06T11:28:57;15.50;99.90
25668;DHT22;18003;-33.830;151.202;2023-08-06T11:31:27;15.50;99.90
25668;DHT22;18003;-33.830;151.202;2023-08-06T11:33:57;15.50;99.90
25668;DHT22;18003;-33.830;151.202;2023-08-06T11:36:30;15.50;99.90
25668;DHT22;18003;-33.830;151.202;2023-08-06T11:39:01;15.50;99.90
25668;DHT22;18003;-33.830;151.202;2023-08-06T11:41:33;15.50;99.90
25668;DHT22;18003;-33.830;151.202;2023-08-06T11:44:04;15.50;99.90
25668;DHT22;18003;-33.830;151.202;2023-08-06T11:46:55;15.50;99.90
25668;DHT22;18003;-33.830;151.202;2023-08-06T11:52:11;15.40;99.90
25668;DHT22;18003;-33.830;151.202;2023-08-06T11:54:41;15.40;99.90
25668;DHT22;18003;-33.830;151.202;2023-08-06T11:57:12;15.40;99.90
25668;DHT22;18003;-33.830;151.202;2023-08-06T11:59:42;15.50;99.90
25668;DHT22;18003;-33.830;151.202;2023-08-06T12:02:12;15.20;99.90
25668;DHT22;18003;-33.830;151.202;2023-08-06T12:05:00;15.00;99.90
25668;DHT22;18003;-33.830;151.202;2023-08-06T12:07:36;14.80;99.90
25668;DHT22;18003;-33.830;151.202;2023-08-06T12:10:01;14.70;99.90
25668;DHT22;18003;-33.830;151.202;2023-08-06T12:12:31;14.60;99.90
25668;DHT22;18003;-33.830;151.202;2023-08-06T12:15:01;14.50;99.90
25668;DHT22;18003;-33.830;151.202;2023-08-06T12:17:31;14.40;99.90
25668;DHT22;18003;-33.830;151.202;2023-08-06T12:20:06;14.40;99.90
25668;DHT22;18003;-33.830;151.202;2023-08-06T12:22:36;14.20;99.90
25668;DHT22;18003;-33.830;151.202;2023-08-06T12:25:08;14.10;99.90
25668;DHT22;18003;-33.830;151.202;2023-08-06T12:27:40;14.10;99.90
25668;DHT22;18003;-33.830;151.202;2023-08-06T12:30:12;14.00;99.90
25668;DHT22;18003;-33.830;151.202;2023-08-06T12:32:42;14.00;99.90
25668;DHT22;18003;-33.830;151.202;2023-08-06T12:35:12;14.00;99.90
25668;DHT22;18003;-33.830;151.202;2023-08-06T12:37:42;13.90;99.90
25668;DHT22;18003;-33.830;151.202;2023-08-06T12:40:13;13.90;99.90
25668;DHT22;18003;-33.830;151.202;2023-08-06T12:42:43;13.80;99.90
25668;DHT22;18003;-33.830;151.202;2023-08-06T12:45:13;13.80;99.90
25668;DHT22;18003;-33.830;151.202;2023-08-06T12:47:44;13.80;99.90
25668;DHT22;18003;-33.830;151.202;2023-08-06T12:50:14;13.80;99.90
25668;DHT22;18003;-33.830;151.202;2023-08-06T12:52:45;13.90;99.90
25668;DHT22;18003;-33.830;151.202;2023-08-06T12:55:15;14.20;99.90
25668;DHT22;18003;-33.830;151.202;2023-08-06T12:57:45;14.30;99.90
25668;DHT22;18003;-33.830;151.202;2023-08-06T13:00:15;14.50;99.90
25668;DHT22;18003;-33.830;151.202;2023-08-06T13:02:45;14.50;99.90
25668;DHT22;18003;-33.830;151.202;2023-08-06T13:05:15;14.60;99.90
25668;DHT22;18003;-33.830;151.202;2023-08-06T13:07:45;14.70;99.90
25668;DHT22;18003;-33.830;151.202;2023-08-06T13:10:16;14.70;99.90
25668;DHT22;18003;-33.830;151.202;2023-08-06T13:12:46;14.70;99.90
25668;DHT22;18003;-33.830;151.202;2023-08-06T13:15:16;14.80;99.90
25668;DHT22;18003;-33.830;151.202;2023-08-06T13:17:47;14.70;99.90
25668;DHT22;18003;-33.830;151.202;2023-08-06T13:20:17;14.80;99.90
25668;DHT22;18003;-33.830;151.202;2023-08-06T13:22:51;14.80;99.90
25668;DHT22;18003;-33.830;151.202;2023-08-06T13:25:20;14.80;99.90
25668;DHT22;18003;-33.830;151.202;2023-08-06T13:27:50;14.80;99.90
25668;DHT22;18003;-33.830;151.202;2023-08-06T13:30:21;14.80;99.90
25668;DHT22;18003;-33.830;151.202;2023-08-06T13:32:51;14.80;99.90
25668;DHT22;18003;-33.830;151.202;2023-08-06T13:35:21;14.80;99.90
25668;DHT22;18003;-33.830;151.202;2023-08-06T13:37:51;14.80;99.90
25668;DHT22;18003;-33.830;151.202;2023-08-06T13:40:22;14.80;99.90
25668;DHT22;18003;-33.830;151.202;2023-08-06T13:42:52;14.80;99.90
25668;DHT22;18003;-33.830;151.202;2023-08-06T13:45:22;14.80;99.90
25668;DHT22;18003;-33.830;151.202;2023-08-06T13:47:52;14.80;99.90
25668;DHT22;18003;-33.830;151.202;2023-08-06T13:50:22;14.80;99.90
25668;DHT22;18003;-33.830;151.202;2023-08-06T13:52:53;14.80;99.90
25668;DHT22;18003;-33.830;151.202;2023-08-06T13:55:23;14.80;99.90
25668;DHT22;18003;-33.830;151.202;2023-08-06T13:57:55;14.80;99.90
25668;DHT22;18003;-33.830;151.202;2023-08-06T14:00:25;14.80;99.90
25668;DHT22;18003;-33.830;151.202;2023-08-06T14:02:55;14.80;99.90
25668;DHT22;18003;-33.830;151.202;2023-08-06T14:05:25;14.80;99.90
25668;DHT22;18003;-33.830;151.202;2023-08-06T14:07:55;14.80;99.90
25668;DHT22;18003;-33.830;151.202;2023-08-06T14:10:25;14.80;99.90
25668;DHT22;18003;-33.830;151.202;2023-08-06T14:12:55;14.80;99.90
25668;DHT22;18003;-33.830;151.202;2023-08-06T14:15:25;14.80;99.90
25668;DHT22;18003;-33.830;151.202;2023-08-06T14:17:55;14.80;99.90
25668;DHT22;18003;-33.830;151.202;2023-08-06T14:20:25;14.80;99.90
25668;DHT22;18003;-33.830;151.202;2023-08-06T14:22:55;14.80;99.90
25668;DHT22;18003;-33.830;151.202;2023-08-06T14:25:26;14.80;99.90
25668;DHT22;18003;-33.830;151.202;2023-08-06T14:27:56;14.80;99.90
25668;DHT22;18003;-33.830;151.202;2023-08-06T14:30:26;14.80;99.90
25668;DHT22;18003;-33.830;151.202;2023-08-06T14:32:56;14.80;99.90
25668;DHT22;18003;-33.830;151.202;2023-08-06T14:35:27;14.70;99.90
25668;DHT22;18003;-33.830;151.202;2023-08-06T14:37:57;14.70;99.90
25668;DHT22;18003;-33.830;151.202;2023-08-06T14:40:27;14.70;99.90
25668;DHT22;18003;-33.830;151.202;2023-08-06T14:42:58;14.70;99.90
25668;DHT22;18003;-33.830;151.202;2023-08-06T14:45:29;14.70;99.90
25668;DHT22;18003;-33.830;151.202;2023-08-06T14:47:59;14.70;99.90
25668;DHT22;18003;-33.830;151.202;2023-08-06T14:50:29;14.80;99.90
25668;DHT22;18003;-33.830;151.202;2023-08-06T14:53:00;14.70;99.90
25668;DHT22;18003;-33.830;151.202;2023-08-06T14:55:30;14.70;99.90
25668;DHT22;18003;-33.830;151.202;2023-08-06T14:58:02;14.70;99.90
25668;DHT22;18003;-33.830;151.202;2023-08-06T15:00:32;14.80;99.90
25668;DHT22;18003;-33.830;151.202;2023-08-06T15:03:02;14.80;99.90
25668;DHT22;18003;-33.830;151.202;2023-08-06T15:05:32;14.70;99.90
25668;DHT22;18003;-33.830;151.202;2023-08-06T15:08:03;14.80;99.90
25668;DHT22;18003;-33.830;151.202;2023-08-06T15:10:33;14.70;99.90
25668;DHT22;18003;-33.830;151.202;2023-08-06T15:13:03;14.70;99.90
25668;DHT22;18003;-33.830;151.202;2023-08-06T15:15:33;14.80;99.90
25668;DHT22;18003;-33.830;151.202;2023-08-06T15:18:03;14.80;99.90
25668;DHT22;18003;-33.830;151.202;2023-08-06T15:20:33;14.80;99.90
25668;DHT22;18003;-33.830;151.202;2023-08-06T15:23:02;14.80;99.90